Bridgeport, TX (76426)

1:05 PM CDT on August 24, 2016 (GMT -0500)
lake bridgeport | | Change Station
Active Advisory: Flood Warning

Elev 879 ft 33.22 °N, 97.83 °W | Updated 8 seconds ago

Clear
Clear
88.3 °F
Feels Like 92 °F
N
5.1
Wind Variable Wind from WNW
Gusts 7.4 mph

Today
High -- | Low -- °F
--% Chance of Precip.
Yesterday
High -- | Low -- °F
Precip. -- in
Pressure 30.10 in
Visibility 10.0 miles
Clouds Clear
Heat Index 92 °F
Dew Point 68 °F
Humidity 52%
Rainfall 0.00 in
Snow Depth Not available.
7:00 AM 8:05 PM
Waning Gibbous, 55% visible
METAR KXBP 241755Z AUTO 18008G16KT 10SM CLR 32/21 A3010 RMK AO2 T03170213 10317 20217
Pressure 30.10 in
Visibility 10.0 miles
Clouds Clear
Heat Index 92 °F
Dew Point 68 °F
Humidity 52%
Rainfall 0.00 in
Snow Depth Not available.
7:00 AM 8:05 PM
Waning Gibbous, 55% visible
METAR KXBP 241755Z AUTO 18008G16KT 10SM CLR 32/21 A3010 RMK AO2 T03170213 10317 20217

10-Day Weather Forecast

Almanac

Astronomy

Aug. 24, 2016 Rise Set
Actual Time
Civil Twilight
Nautical Twilight
Astronomical Twilight
Moon
Length of Visible Light
Length of Day
Tomorrow will be .
, % of the Moon is Illuminated

Today's Extremes

State Highs State Lows

Community

WunderPhotos

Upload Photos

1,934,662 photos uploaded!

WunderBlog® & News

Nearby

Air Quality

  Air Quality AQ Index Pollutant
Not available.

Snow Depth

Station Depth Elevation

Earthquake Activity

City Distance Mag. Time & Date
Minimum magnitude displayed is 2.5.

Coastal Water Temperatures

Place Temperature

Stations

Nearby Weather Stations

Station Location Temp. Windchill Dew Point Humidity Wind Precip. Elev Updated Type
                   

Watches & Warnings

Flood Warning
Issued: 9:09 AM CDT Aug. 24, 2016 – National Weather Service

The Flood Warning continues for
the West Fork Trinity River near Boyd.
* At 0815 am Wednesday the stage was 16.84 feet.
* Flood stage is 16 feet.
* Minor flooding is occurring and minor flooding is forecast.
* Forecast... the river will continue rising to a crest near 17 feet
by Thursday morning then begin falling but remain above flood
stage.


Lat... Lon 3319 9774 3300 9758 3305 9746 3316 9756